Lazarevskaya, Russia
Current Conditions -  °F | °C
As of 7:30 AM on Monday 20 Oct 2014 (Local Time) from URSS Reporting Station
Broken Clouds Broken Clouds  
Wind Chill: 43°   Ceiling: 6100
Heat Index: 48°   Visibility: 6mi
Dew Point: 43°   Wind: 11mph
Humidity: 82%   Direction: 70°ENE
Pressure: 30.24"   Gusts: NA
Location:  43.91°N, 39.33°E
Report Text: URSS 200430Z 07005MPS 9999 FEW023 BKN061 09/06 Q1024 NOSIG RMKR02/05004MPS MT OBSC QFE767 06000070 02000070
Loading
Personal Weather Stations






























Interactive Weather Map
Tropical Storm Tracking
New forecast layout! Learn more

10-Day Weather Forecast

Advertisements
Track Severe Weather on mobile